createdAt,value
2017-03-28T00:06:11.615Z,1014.34
2017-03-28T00:16:11.686Z,1014.3
2017-03-28T00:26:11.593Z,1014.34
2017-03-28T00:36:11.706Z,1014.25
2017-03-28T00:46:11.673Z,1014.23
2017-03-28T00:56:11.736Z,1014.18
2017-03-28T01:06:11.686Z,1014.05
2017-03-28T01:16:11.648Z,1013.91
2017-03-28T01:26:11.721Z,1013.8
2017-03-28T01:36:11.673Z,1013.71
2017-03-28T01:46:11.732Z,1013.64
2017-03-28T01:56:11.708Z,1013.46
2017-03-28T02:06:11.767Z,1013.4
2017-03-28T02:16:12.780Z,1013.33
2017-03-28T02:26:11.814Z,1013.19
2017-03-28T02:36:11.754Z,1013.11
2017-03-28T02:46:11.813Z,1013.07
2017-03-28T02:56:11.775Z,1013.05
2017-03-28T03:06:11.736Z,1012.97
2017-03-28T03:16:12.102Z,1012.96
2017-03-28T03:26:11.744Z,1012.92
2017-03-28T03:36:11.814Z,1012.93
2017-03-28T03:46:11.777Z,1012.98
2017-03-28T03:56:11.841Z,1012.98
2017-03-28T04:06:11.804Z,1012.91
2017-03-28T04:16:11.864Z,1012.83
2017-03-28T04:26:11.814Z,1012.84
2017-03-28T04:36:11.885Z,1012.83
2017-03-28T04:46:11.847Z,1012.83
2017-03-28T04:56:11.815Z,1012.85
2017-03-28T05:06:11.873Z,1012.88
2017-03-28T05:16:11.832Z,1012.98
2017-03-28T05:26:11.893Z,1012.97
2017-03-28T05:36:11.854Z,1013.01
2017-03-28T05:46:11.925Z,1013.06
2017-03-28T05:56:11.887Z,1013.04
2017-03-28T06:06:11.942Z,1013.09
2017-03-28T06:16:11.909Z,1013.13
2017-03-28T06:26:11.962Z,1013.2
2017-03-28T06:36:11.930Z,1013.22
2017-03-28T06:46:11.997Z,1013.3
2017-03-28T06:56:11.950Z,1013.32
2017-03-28T07:06:12.027Z,1013.36
2017-03-28T07:16:11.977Z,1013.36
2017-03-28T07:26:11.933Z,1013.45
2017-03-28T07:36:12.010Z,1013.42
2017-03-28T07:46:11.954Z,1013.43
2017-03-28T07:56:12.120Z,1013.47
2017-03-28T08:06:11.989Z,1013.59
2017-03-28T08:16:11.975Z,1013.7
2017-03-28T08:26:11.970Z,1013.73
2017-03-28T08:36:11.987Z,1013.75
2017-03-28T08:46:11.992Z,1013.7
2017-03-28T08:56:12.002Z,1013.77
2017-03-28T09:06:12.007Z,1013.77
2017-03-28T09:16:12.026Z,1013.77
2017-03-28T09:26:12.034Z,1013.81
2017-03-28T09:36:12.054Z,1013.81
2017-03-28T09:46:12.053Z,1013.83
2017-03-28T09:56:12.059Z,1013.9
2017-03-28T10:06:12.075Z,1013.8
2017-03-28T10:16:12.083Z,1013.79
2017-03-28T10:26:12.088Z,1013.65
2017-03-28T10:36:12.101Z,1013.69
2017-03-28T10:46:12.126Z,1013.67
2017-03-28T10:56:12.126Z,1013.74
2017-03-28T11:06:12.132Z,1013.71
2017-03-28T11:16:12.142Z,1013.72
2017-03-28T11:26:12.148Z,1013.56
2017-03-28T11:36:12.163Z,1013.56
2017-03-28T11:46:12.168Z,1013.46
2017-03-28T11:56:12.192Z,1013.39
2017-03-28T12:06:12.180Z,1013.3
2017-03-28T12:16:12.209Z,1013.21
2017-03-28T12:26:12.207Z,1013.1
2017-03-28T12:36:12.197Z,1013.15
2017-03-28T12:46:12.225Z,1013.05
2017-03-28T12:56:12.203Z,1013.05
2017-03-28T13:06:12.214Z,1013
2017-03-28T13:16:12.216Z,1013.01
2017-03-28T13:26:12.219Z,1012.91
2017-03-28T13:36:12.227Z,1012.9
2017-03-28T13:46:12.208Z,1012.78
2017-03-28T13:56:12.217Z,1012.82
2017-03-28T14:06:12.215Z,1012.8
2017-03-28T14:16:12.259Z,1012.73
2017-03-28T14:26:12.331Z,1012.88
2017-03-28T14:36:12.323Z,1012.79
2017-03-28T14:46:12.269Z,1012.91
2017-03-28T14:56:12.312Z,1012.83
2017-03-28T15:06:12.303Z,1012.84
2017-03-28T15:16:12.225Z,1012.84
2017-03-28T15:26:12.290Z,1012.81
2017-03-28T15:36:12.256Z,1012.83
2017-03-28T15:46:12.331Z,1012.84
2017-03-28T15:56:12.302Z,1012.85
2017-03-28T16:06:12.247Z,1012.87
2017-03-28T16:16:12.307Z,1012.85
2017-03-28T16:26:12.263Z,1012.86
2017-03-28T16:36:12.322Z,1012.89
2017-03-28T16:46:12.282Z,1012.85
2017-03-28T16:56:12.229Z,1012.89
2017-03-28T17:06:12.831Z,1012.95
2017-03-28T17:16:13.220Z,1012.96
2017-03-28T17:26:12.342Z,1013.04
2017-03-28T17:36:12.298Z,1013.04
2017-03-28T17:46:12.228Z,1013.07
2017-03-28T17:56:12.254Z,1013.15
2017-03-28T18:06:12.224Z,1013.12
2017-03-28T18:16:12.444Z,1013.1
2017-03-28T18:26:12.238Z,1013.15
2017-03-28T18:36:12.405Z,1013.21
2017-03-28T18:46:12.414Z,1013.26
2017-03-28T18:56:12.260Z,1013.3
2017-03-28T19:06:12.266Z,1013.33
2017-03-28T19:16:12.759Z,1013.42
2017-03-28T19:26:13.130Z,1013.45
2017-03-28T19:36:13.705Z,1013.49
2017-03-28T19:46:12.235Z,1013.52
2017-03-28T19:56:12.420Z,1013.56
2017-03-28T20:06:12.535Z,1013.6
2017-03-28T20:16:12.496Z,1013.71
2017-03-28T20:26:12.262Z,1013.77
2017-03-28T20:36:12.486Z,1013.78
2017-03-28T20:46:12.285Z,1013.77
2017-03-28T20:56:12.420Z,1013.81
2017-03-28T21:06:12.321Z,1013.7
2017-03-28T21:16:13.202Z,1013.9
2017-03-28T21:26:13.248Z,1014.4
2017-03-28T21:36:12.299Z,1014.5
2017-03-28T21:46:12.267Z,1014.7
2017-03-28T21:56:12.315Z,1014.78
2017-03-28T22:06:12.283Z,1014.76
2017-03-28T22:16:12.237Z,1014.71
2017-03-28T22:26:12.330Z,1014.79
2017-03-28T22:36:12.264Z,1014.79
2017-03-28T22:46:12.326Z,1014.87
2017-03-28T22:56:12.276Z,1014.94
2017-03-28T23:06:12.243Z,1014.98
2017-03-28T23:16:12.304Z,1014.97
2017-03-28T23:26:12.259Z,1014.96
2017-03-28T23:36:12.329Z,1014.95
2017-03-28T23:46:12.291Z,1015
2017-03-28T23:56:12.249Z,1015.01
